createdAt,value
2022-10-22T00:09:53.166Z,90.15
2022-10-22T00:14:57.399Z,89.83
2022-10-22T00:20:00.272Z,90.62
2022-10-22T00:25:03.197Z,90.21
2022-10-22T00:30:08.774Z,90.20
2022-10-22T00:35:11.676Z,89.89
2022-10-22T00:40:14.562Z,89.48
2022-10-22T00:45:24.820Z,89.66
2022-10-22T00:50:31.100Z,90.17
2022-10-22T00:55:34.487Z,90.37
2022-10-22T01:00:38.870Z,90.28
2022-10-22T01:05:45.345Z,89.52
2022-10-22T01:11:00.185Z,89.61
2022-10-22T01:16:12.264Z,90.11
2022-10-22T01:21:27.824Z,88.74
2022-10-22T01:26:41.847Z,88.60
2022-10-22T01:31:49.539Z,89.27
2022-10-22T01:36:54.459Z,89.79
2022-10-22T01:41:58.280Z,89.51
2022-10-22T01:47:18.179Z,88.84
2022-10-22T01:52:31.681Z,88.65
2022-10-22T01:57:44.297Z,88.75
2022-10-22T02:02:54.895Z,88.73
2022-10-22T02:08:07.715Z,88.57
2022-10-22T02:13:15.080Z,89.47
2022-10-22T02:18:23.581Z,89.22
2022-10-22T02:23:27.406Z,89.61
2022-10-22T02:28:37.339Z,89.14
2022-10-22T02:33:46.475Z,88.85
2022-10-22T02:38:52.071Z,89.37
2022-10-22T02:43:56.452Z,89.91
2022-10-22T02:49:00.701Z,89.86
2022-10-22T02:54:03.579Z,88.49
2022-10-22T02:59:06.608Z,89.32
2022-10-22T03:04:10.872Z,89.42
2022-10-22T03:09:13.772Z,90.29
2022-10-22T03:14:16.667Z,89.98
2022-10-22T03:19:20.908Z,89.62
2022-10-22T03:24:28.531Z,89.11
2022-10-22T03:29:34.685Z,89.46
2022-10-22T03:34:38.935Z,91.27
2022-10-22T03:39:42.311Z,90.62
2022-10-22T03:44:45.302Z,90.03
2022-10-22T03:49:49.530Z,89.55
2022-10-22T03:54:52.551Z,89.58
2022-10-22T03:59:55.457Z,89.93
2022-10-22T04:04:59.741Z,89.83
2022-10-22T04:10:02.752Z,90.58
2022-10-22T04:15:06.170Z,90.10
2022-10-22T04:20:12.367Z,89.79
2022-10-22T04:25:15.278Z,90.34
2022-10-22T04:30:18.319Z,89.66
2022-10-22T04:35:22.623Z,90.32
2022-10-22T04:40:25.558Z,90.44
2022-10-22T04:45:28.487Z,90.38
2022-10-22T04:50:32.755Z,89.07
2022-10-22T04:55:35.714Z,90.42
2022-10-22T05:00:38.688Z,90.23
2022-10-22T05:05:42.985Z,90.43
2022-10-22T05:10:45.883Z,91.13
2022-10-22T05:15:48.775Z,90.94
2022-10-22T05:20:53.171Z,90.19
2022-10-22T05:25:56.381Z,89.96
2022-10-22T05:31:01.254Z,90.07
2022-10-22T05:36:08.485Z,89.87
2022-10-22T05:41:13.345Z,90.48
2022-10-22T05:46:22.488Z,89.80
2022-10-22T05:51:28.875Z,88.88
2022-10-22T05:56:32.955Z,89.97
2022-10-22T06:01:36.450Z,89.28
2022-10-22T06:06:44.498Z,89.46
2022-10-22T06:11:48.190Z,89.76
2022-10-22T06:16:51.450Z,89.97
2022-10-22T06:21:55.719Z,89.82
2022-10-22T06:26:58.616Z,90.62
2022-10-22T06:32:01.513Z,90.31
2022-10-22T06:37:05.783Z,89.95
2022-10-22T06:42:08.691Z,90.11
2022-10-22T06:47:11.928Z,91.47
2022-10-22T06:52:16.188Z,91.38
2022-10-22T06:57:19.109Z,90.60
2022-10-22T07:02:21.984Z,90.69
2022-10-22T07:07:26.245Z,91.02
2022-10-22T07:12:29.147Z,91.04
2022-10-22T07:17:32.097Z,90.47
2022-10-22T07:22:36.361Z,90.73
2022-10-22T07:27:39.552Z,89.89
2022-10-22T07:32:42.640Z,90.29
2022-10-22T07:37:46.901Z,89.98
2022-10-22T07:42:49.824Z,91.14
2022-10-22T07:47:52.723Z,95.63
2022-10-22T07:52:58.238Z,95.87
2022-10-22T07:58:01.508Z,96.36
2022-10-22T08:03:04.531Z,94.07
2022-10-22T08:08:08.809Z,93.49
2022-10-22T08:13:12.323Z,92.08
2022-10-22T08:18:15.319Z,92.35
2022-10-22T08:23:22.089Z,92.26
2022-10-22T08:28:29.755Z,91.58
2022-10-22T08:33:32.866Z,91.57
2022-10-22T08:38:37.204Z,90.56
2022-10-22T08:44:03.100Z,89.62
2022-10-22T08:49:10.738Z,90.75
2022-10-22T08:54:26.079Z,89.71
2022-10-22T08:59:38.807Z,89.65
2022-10-22T09:04:48.910Z,90.00
2022-10-22T09:09:56.784Z,89.59
2022-10-22T09:14:59.797Z,88.42
2022-10-22T09:20:10.444Z,88.33
2022-10-22T09:25:22.669Z,87.39
2022-10-22T09:30:28.492Z,87.17
2022-10-22T09:35:35.591Z,86.97
2022-10-22T09:40:46.715Z,84.41
2022-10-22T09:45:56.299Z,83.44
2022-10-22T09:51:06.251Z,82.05
2022-10-22T09:56:18.360Z,81.66
2022-10-22T10:01:27.143Z,81.13
2022-10-22T10:06:33.716Z,80.33
2022-10-22T10:11:44.509Z,78.95
2022-10-22T10:16:59.463Z,76.35
2022-10-22T10:22:11.460Z,76.30
2022-10-22T10:27:25.376Z,74.68
2022-10-22T10:32:42.144Z,74.06
2022-10-22T10:37:52.592Z,74.67
2022-10-22T10:43:03.641Z,78.07
2022-10-22T10:48:24.861Z,75.45
2022-10-22T10:53:42.799Z,72.11
2022-10-22T10:58:55.336Z,73.05
2022-10-22T11:04:22.197Z,71.21
2022-10-22T11:09:28.473Z,68.19
2022-10-22T11:14:40.143Z,70.52
2022-10-22T11:19:52.985Z,71.17
2022-10-22T11:25:04.617Z,72.20
2022-10-22T11:30:15.221Z,72.80
2022-10-22T11:35:25.687Z,73.99
2022-10-22T11:40:35.842Z,73.58
2022-10-22T11:45:42.034Z,72.37
2022-10-22T11:50:47.981Z,71.20
2022-10-22T11:55:53.115Z,71.34
2022-10-22T12:00:58.739Z,72.38
2022-10-22T12:06:19.805Z,72.03
2022-10-22T12:11:25.287Z,71.50
2022-10-22T12:16:56.245Z,71.56
2022-10-22T12:22:07.400Z,69.87
2022-10-22T12:27:22.502Z,69.73
2022-10-22T12:32:34.909Z,69.35
2022-10-22T12:37:39.120Z,69.66
2022-10-22T12:42:48.851Z,70.39
2022-10-22T12:47:57.799Z,69.56
2022-10-22T12:53:01.312Z,68.70
2022-10-22T12:58:07.047Z,66.37
2022-10-22T13:03:26.462Z,67.08
2022-10-22T13:08:30.086Z,66.44
2022-10-22T13:13:35.574Z,64.94
2022-10-22T13:18:39.839Z,66.97
2022-10-22T13:23:54.172Z,66.39
2022-10-22T13:29:01.141Z,66.53
2022-10-22T13:34:11.785Z,65.04
2022-10-22T13:39:19.614Z,64.96
2022-10-22T13:44:22.532Z,65.68
2022-10-22T13:49:26.831Z,65.17
2022-10-22T13:54:29.742Z,66.63
2022-10-22T13:59:32.779Z,66.39
2022-10-22T14:04:40.279Z,65.92
2022-10-22T14:09:43.860Z,67.35
2022-10-22T14:14:46.951Z,67.87
2022-10-22T14:19:51.492Z,68.07
2022-10-22T14:24:54.457Z,67.13
2022-10-22T14:29:59.612Z,67.13
2022-10-22T14:35:04.163Z,67.27
2022-10-22T14:40:08.883Z,67.50
2022-10-22T14:45:16.821Z,68.46
2022-10-22T14:50:21.221Z,68.22
2022-10-22T14:55:26.195Z,68.30
2022-10-22T15:00:29.147Z,68.33
2022-10-22T15:05:33.474Z,69.46
2022-10-22T15:10:36.425Z,70.18
2022-10-22T15:15:41.536Z,70.25
2022-10-22T15:20:46.334Z,70.84
2022-10-22T15:25:49.352Z,71.28
2022-10-22T15:30:56.479Z,71.81
2022-10-22T15:36:11.183Z,72.55
2022-10-22T15:41:14.348Z,72.72
2022-10-22T15:46:19.607Z,73.60
2022-10-22T15:51:23.863Z,74.22
2022-10-22T15:56:28.373Z,75.43
2022-10-22T16:01:33.332Z,76.01
2022-10-22T16:06:40.427Z,76.61
2022-10-22T16:11:43.862Z,77.19
2022-10-22T16:16:48.740Z,78.38
2022-10-22T16:21:54.723Z,78.40
2022-10-22T16:26:57.640Z,78.38
2022-10-22T16:32:00.554Z,78.41
2022-10-22T16:37:10.143Z,80.32
2022-10-22T16:42:13.367Z,79.60
2022-10-22T16:47:16.367Z,79.38
2022-10-22T16:52:20.877Z,78.95
2022-10-22T16:57:23.890Z,79.56
2022-10-22T17:02:26.933Z,78.65
2022-10-22T17:07:31.190Z,78.18
2022-10-22T17:12:35.459Z,77.04
2022-10-22T17:17:38.974Z,76.55
2022-10-22T17:22:43.989Z,76.59
2022-10-22T17:27:47.051Z,76.99
2022-10-22T17:32:50.110Z,77.52
2022-10-22T17:37:54.364Z,77.25
2022-10-22T17:42:57.831Z,77.46
2022-10-22T17:48:00.759Z,75.97
2022-10-22T17:53:05.015Z,77.02
2022-10-22T17:58:07.923Z,76.81
2022-10-22T18:03:12.093Z,76.85
2022-10-22T18:08:16.428Z,76.70
2022-10-22T18:13:20.918Z,76.79
2022-10-22T18:18:24.422Z,76.68
2022-10-22T18:23:29.270Z,76.64
2022-10-22T18:28:32.632Z,77.17
2022-10-22T18:33:36.688Z,76.88
2022-10-22T18:38:41.254Z,77.47
2022-10-22T18:43:44.223Z,77.85
2022-10-22T18:48:47.905Z,78.02
2022-10-22T18:54:11.313Z,78.08
2022-10-22T18:59:20.681Z,77.81
2022-10-22T19:04:23.577Z,78.51
2022-10-22T19:09:27.924Z,78.79
2022-10-22T19:14:30.878Z,78.87
2022-10-22T19:19:33.795Z,79.41
2022-10-22T19:24:38.163Z,80.86
2022-10-22T19:29:41.153Z,78.52
2022-10-22T19:34:44.499Z,78.88
2022-10-22T19:39:50.090Z,78.90
2022-10-22T19:44:53.096Z,78.60
2022-10-22T19:49:56.153Z,78.76
2022-10-22T19:55:00.462Z,78.36
2022-10-22T20:00:03.407Z,77.79
2022-10-22T20:05:26.286Z,77.51
2022-10-22T20:10:30.628Z,77.71
2022-10-22T20:15:34.115Z,77.71
2022-10-22T20:20:39.328Z,77.62
2022-10-22T20:25:44.805Z,78.00
2022-10-22T20:30:47.949Z,78.49
2022-10-22T20:35:59.960Z,78.19
2022-10-22T20:41:07.183Z,79.06
2022-10-22T20:46:17.441Z,79.06
2022-10-22T20:51:20.603Z,78.94
2022-10-22T20:56:25.576Z,80.09
2022-10-22T21:01:28.532Z,79.79
2022-10-22T21:06:31.530Z,80.07
2022-10-22T21:11:36.550Z,80.68
2022-10-22T21:16:41.788Z,81.20
2022-10-22T21:21:44.692Z,81.43
2022-10-22T21:26:48.945Z,82.32
2022-10-22T21:31:53.159Z,82.16
2022-10-22T21:36:56.175Z,81.94
2022-10-22T21:42:00.457Z,82.53
2022-10-22T21:47:03.669Z,82.35
2022-10-22T21:52:07.082Z,82.46
2022-10-22T21:57:11.346Z,82.21
2022-10-22T22:02:14.335Z,82.40
2022-10-22T22:07:17.291Z,82.85
2022-10-22T22:12:21.622Z,83.01
2022-10-22T22:17:24.601Z,82.84
2022-10-22T22:22:27.975Z,83.04
2022-10-22T22:27:32.217Z,83.54
2022-10-22T22:32:35.165Z,83.55
2022-10-22T22:37:38.179Z,83.10
2022-10-22T22:42:42.463Z,83.15
2022-10-22T22:47:45.371Z,83.45
2022-10-22T22:52:48.355Z,82.57
2022-10-22T22:57:52.654Z,83.37
2022-10-22T23:02:56.442Z,84.00
2022-10-22T23:07:59.347Z,84.29
2022-10-22T23:13:03.683Z,84.18
2022-10-22T23:18:06.678Z,84.51
2022-10-22T23:23:09.605Z,85.05
2022-10-22T23:28:13.863Z,85.36
2022-10-22T23:33:19.343Z,85.23
2022-10-22T23:38:22.249Z,85.26
2022-10-22T23:43:27.336Z,84.13
2022-10-22T23:48:30.291Z,84.25
2022-10-22T23:53:33.243Z,83.99
2022-10-22T23:58:38.248Z,84.61
